createdAt,value
2019-03-24T00:00:04.904Z,48.6
2019-03-24T00:15:04.248Z,48.6
2019-03-24T00:30:04.798Z,48.6
2019-03-24T00:45:04.627Z,48.9
2019-03-24T01:00:04.805Z,49.1
2019-03-24T01:15:04.652Z,48.9
2019-03-24T01:30:04.257Z,49.7
2019-03-24T01:45:04.516Z,49.6
2019-03-24T02:00:04.272Z,49.7
2019-03-24T02:15:04.646Z,50.1
2019-03-24T02:30:04.643Z,50.4
2019-03-24T02:45:04.422Z,50.6
2019-03-24T03:00:04.813Z,50.5
2019-03-24T03:15:04.414Z,51
2019-03-24T03:30:04.981Z,51.2
2019-03-24T03:45:05.245Z,51.1
2019-03-24T04:00:05.048Z,51.5
2019-03-24T04:15:04.872Z,51.2
2019-03-24T04:30:04.389Z,51.7
2019-03-24T04:45:04.242Z,51.9
2019-03-24T05:00:04.456Z,51.9
2019-03-24T05:15:04.193Z,52.3
2019-03-24T05:30:04.415Z,52.5
2019-03-24T05:45:04.185Z,52.6
2019-03-24T06:00:04.126Z,53
2019-03-24T06:15:04.939Z,53.7
2019-03-24T06:30:04.431Z,53.7
2019-03-24T06:45:04.195Z,54.4
2019-03-24T07:00:04.495Z,55.1
2019-03-24T07:15:04.242Z,56.2
2019-03-24T07:30:04.801Z,56.8
2019-03-24T07:45:05.054Z,58
2019-03-24T08:00:04.808Z,58
2019-03-24T08:15:04.579Z,59.1
2019-03-24T08:30:04.649Z,59.7
2019-03-24T08:45:04.878Z,60.6
2019-03-24T09:00:04.654Z,60.6
2019-03-24T09:15:04.439Z,69.3
2019-03-24T09:30:04.432Z,66.7
2019-03-24T09:45:04.178Z,61.5
2019-03-24T10:00:04.495Z,49.6
2019-03-24T10:15:04.762Z,51.3
2019-03-24T10:30:04.226Z,51.2
2019-03-24T10:45:04.472Z,51.2
2019-03-24T11:00:04.770Z,51.1
2019-03-24T11:15:04.114Z,51.8
2019-03-24T11:30:04.615Z,52
2019-03-24T11:45:04.428Z,51.1
2019-03-24T12:00:09.238Z,51.8
2019-03-24T12:15:05.628Z,51.1
2019-03-24T12:30:04.191Z,51
2019-03-24T12:45:04.577Z,51
2019-03-24T13:00:04.275Z,50.7
2019-03-24T13:15:04.532Z,51
2019-03-24T13:30:12.056Z,50.2
2019-03-24T13:45:04.404Z,50
2019-03-24T14:00:04.697Z,50
2019-03-24T14:15:05.013Z,49.7
2019-03-24T14:30:04.602Z,49.2
2019-03-24T14:45:04.405Z,49.2
2019-03-24T15:00:04.703Z,49
2019-03-24T15:15:07.519Z,48.8
2019-03-24T15:30:05.014Z,48.6
2019-03-24T15:45:04.368Z,48.4
2019-03-24T16:00:04.223Z,48.3
2019-03-24T16:15:04.491Z,48
2019-03-24T16:30:04.956Z,48.2
2019-03-24T16:45:04.282Z,48.2
2019-03-24T17:00:04.586Z,48.3
2019-03-24T17:15:04.893Z,47.9
2019-03-24T17:30:04.405Z,48.1
2019-03-24T17:45:04.706Z,48.1
2019-03-24T18:00:05.021Z,48
2019-03-24T18:15:04.354Z,47.6
2019-03-24T18:30:04.358Z,47.8
2019-03-24T18:45:04.155Z,47.8
2019-03-24T19:00:04.411Z,48
2019-03-24T19:15:04.772Z,48.3
2019-03-24T19:30:04.160Z,48.6
2019-03-24T19:45:04.483Z,48.5
2019-03-24T20:00:04.901Z,48.1
2019-03-24T20:15:04.647Z,48.5
2019-03-24T20:30:05.189Z,48.9
2019-03-24T20:45:04.567Z,48.8
2019-03-24T21:00:04.345Z,49
2019-03-24T21:15:04.213Z,49
2019-03-24T21:30:10.229Z,49.4
2019-03-24T21:45:04.299Z,49.5
2019-03-24T22:00:04.595Z,49.7
2019-03-24T22:15:04.890Z,49.6
2019-03-24T22:30:09.899Z,49.7
2019-03-24T22:45:04.260Z,49.9
2019-03-24T23:00:09.622Z,49.7
2019-03-24T23:15:04.690Z,49.9
2019-03-24T23:30:04.136Z,50.2
2019-03-24T23:45:04.381Z,50.1
